sensor_id;sensor_type;location;lat;lon;timestamp;pressure;altitude;pressure_sealevel;temperature;humidity
7802;BME280;3945;48.952;9.506;2022-10-04T00:00:24;98744.53;;;7.27;90.87
7802;BME280;3945;48.952;9.506;2022-10-04T00:02:51;98741.44;;;7.24;90.17
7802;BME280;3945;48.952;9.506;2022-10-04T00:05:21;98747.53;;;7.18;90.18
7802;BME280;3945;48.952;9.506;2022-10-04T00:07:49;98744.44;;;7.07;90.64
7802;BME280;3945;48.952;9.506;2022-10-04T00:10:18;98742.19;;;6.98;90.39
7802;BME280;3945;48.952;9.506;2022-10-04T00:12:46;98740.91;;;6.87;90.43
7802;BME280;3945;48.952;9.506;2022-10-04T00:15:16;98741.31;;;6.84;91.46
7802;BME280;3945;48.952;9.506;2022-10-04T00:17:44;98740.88;;;6.81;91.22
7802;BME280;3945;48.952;9.506;2022-10-04T00:25:35;98732.34;;;6.85;92.24
7802;BME280;3945;48.952;9.506;2022-10-04T00:31:11;98736.22;;;6.89;92.44
7802;BME280;3945;48.952;9.506;2022-10-04T00:33:40;98738.47;;;6.92;91.88
7802;BME280;3945;48.952;9.506;2022-10-04T00:39:02;98734.81;;;6.93;91.95
7802;BME280;3945;48.952;9.506;2022-10-04T00:41:30;98732.16;;;6.93;91.44
7802;BME280;3945;48.952;9.506;2022-10-04T00:44:00;98726.47;;;6.90;92.60
7802;BME280;3945;48.952;9.506;2022-10-04T00:46:27;98730.75;;;6.91;91.86
7802;BME280;3945;48.952;9.506;2022-10-04T00:48:54;98730.94;;;6.89;92.24
7802;BME280;3945;48.952;9.506;2022-10-04T00:51:24;98734.41;;;6.90;91.36
7802;BME280;3945;48.952;9.506;2022-10-04T00:53:57;98729.31;;;6.88;91.88
7802;BME280;3945;48.952;9.506;2022-10-04T00:56:26;98735.41;;;6.89;91.48
7802;BME280;3945;48.952;9.506;2022-10-04T00:59:18;98728.28;;;6.89;91.83
7802;BME280;3945;48.952;9.506;2022-10-04T01:01:48;98721.19;;;6.90;91.95
7802;BME280;3945;48.952;9.506;2022-10-04T01:04:22;98721.38;;;6.88;92.09
7802;BME280;3945;48.952;9.506;2022-10-04T01:06:52;98713.25;;;6.90;92.86
7802;BME280;3945;48.952;9.506;2022-10-04T01:09:19;98715.88;;;6.90;92.56
7802;BME280;3945;48.952;9.506;2022-10-04T01:11:48;98713.44;;;6.88;92.78
7802;BME280;3945;48.952;9.506;2022-10-04T01:14:26;98717.91;;;6.88;92.78
7802;BME280;3945;48.952;9.506;2022-10-04T01:16:55;98710.16;;;6.86;91.76
7802;BME280;3945;48.952;9.506;2022-10-04T01:19:27;98706.69;;;6.86;91.76
7802;BME280;3945;48.952;9.506;2022-10-04T01:21:58;98695.53;;;6.84;92.31
7802;BME280;3945;48.952;9.506;2022-10-04T01:24:33;98695.72;;;6.82;92.11
7802;BME280;3945;48.952;9.506;2022-10-04T01:26:59;98696.69;;;6.75;91.91
7802;BME280;3945;48.952;9.506;2022-10-04T01:29:27;98702.56;;;6.70;92.17
7802;BME280;3945;48.952;9.506;2022-10-04T01:31:55;98708.63;;;6.64;91.74
7802;BME280;3945;48.952;9.506;2022-10-04T01:34:22;98703.75;;;6.61;91.89
7802;BME280;3945;48.952;9.506;2022-10-04T01:36:49;98695.56;;;6.56;92.16
7802;BME280;3945;48.952;9.506;2022-10-04T01:39:18;98695.81;;;6.61;91.96
7802;BME280;3945;48.952;9.506;2022-10-04T01:41:47;98697.22;;;6.57;91.53
7802;BME280;3945;48.952;9.506;2022-10-04T01:44:20;98697.81;;;6.52;91.29
7802;BME280;3945;48.952;9.506;2022-10-04T01:46:48;98696.09;;;6.38;90.59
7802;BME280;3945;48.952;9.506;2022-10-04T01:49:15;98693.44;;;6.32;90.69
7802;BME280;3945;48.952;9.506;2022-10-04T01:51:44;98677.94;;;6.28;90.55
7802;BME280;3945;48.952;9.506;2022-10-04T01:54:14;98681.81;;;6.26;90.34
7802;BME280;3945;48.952;9.506;2022-10-04T01:56:45;98683.81;;;6.24;90.38
7802;BME280;3945;48.952;9.506;2022-10-04T01:59:14;98678.72;;;6.22;90.99
7802;BME280;3945;48.952;9.506;2022-10-04T02:01:44;98672.44;;;6.23;90.06
7802;BME280;3945;48.952;9.506;2022-10-04T02:04:13;98672.44;;;6.23;91.05
7802;BME280;3945;48.952;9.506;2022-10-04T02:06:41;98666.53;;;6.21;90.51
7802;BME280;3945;48.952;9.506;2022-10-04T02:09:09;98669.34;;;6.20;90.89
7802;BME280;3945;48.952;9.506;2022-10-04T02:11:37;98661.41;;;6.20;91.00
7802;BME280;3945;48.952;9.506;2022-10-04T02:14:09;98658.41;;;6.23;91.40
7802;BME280;3945;48.952;9.506;2022-10-04T02:16:41;98655.94;;;6.21;91.50
7802;BME280;3945;48.952;9.506;2022-10-04T02:19:08;98649.66;;;6.22;91.40
7802;BME280;3945;48.952;9.506;2022-10-04T02:21:35;98648.84;;;6.22;91.57
7802;BME280;3945;48.952;9.506;2022-10-04T02:24:02;98646.38;;;6.20;91.72
7802;BME280;3945;48.952;9.506;2022-10-04T02:26:29;98644.78;;;6.19;91.91
7802;BME280;3945;48.952;9.506;2022-10-04T02:28:55;98644.53;;;6.14;91.58
7802;BME280;3945;48.952;9.506;2022-10-04T02:31:22;98641.88;;;6.14;91.44
7802;BME280;3945;48.952;9.506;2022-10-04T02:34:08;98631.72;;;6.11;91.14
7802;BME280;3945;48.952;9.506;2022-10-04T02:36:35;98641.66;;;6.09;91.43
7802;BME280;3945;48.952;9.506;2022-10-04T02:39:03;98640.22;;;6.07;91.38
7802;BME280;3945;48.952;9.506;2022-10-04T02:41:31;98648.31;;;6.05;91.23
7802;BME280;3945;48.952;9.506;2022-10-04T02:44:01;98649.09;;;5.99;91.22
7802;BME280;3945;48.952;9.506;2022-10-04T02:46:29;98651.34;;;5.96;90.98
7802;BME280;3945;48.952;9.506;2022-10-04T02:48:57;98650.88;;;5.92;90.84
7802;BME280;3945;48.952;9.506;2022-10-04T02:51:26;98653.09;;;5.88;90.20
7802;BME280;3945;48.952;9.506;2022-10-04T02:53:58;98647.16;;;5.86;90.71
7802;BME280;3945;48.952;9.506;2022-10-04T02:56:26;98654.69;;;5.83;90.29
7802;BME280;3945;48.952;9.506;2022-10-04T02:58:53;98655.03;;;5.80;90.75
7802;BME280;3945;48.952;9.506;2022-10-04T03:01:23;98650.41;;;5.82;91.18
7802;BME280;3945;48.952;9.506;2022-10-04T03:03:51;98650.41;;;5.82;91.29
7802;BME280;3945;48.952;9.506;2022-10-04T03:06:19;98645.13;;;5.82;91.25
7802;BME280;3945;48.952;9.506;2022-10-04T03:08:49;98649.19;;;5.84;91.76
7802;BME280;3945;48.952;9.506;2022-10-04T03:11:17;98645.94;;;5.82;91.27
7802;BME280;3945;48.952;9.506;2022-10-04T03:13:45;98631.50;;;5.85;91.27
7802;BME280;3945;48.952;9.506;2022-10-04T03:16:12;98638.09;;;5.89;91.77
7802;BME280;3945;48.952;9.506;2022-10-04T03:18:39;98635.63;;;5.87;91.50
7802;BME280;3945;48.952;9.506;2022-10-04T03:21:06;98628.03;;;5.84;91.61
7802;BME280;3945;48.952;9.506;2022-10-04T03:23:33;98632.28;;;5.79;91.05
7802;BME280;3945;48.952;9.506;2022-10-04T03:26:02;98631.28;;;5.80;91.22
7802;BME280;3945;48.952;9.506;2022-10-04T03:28:30;98622.13;;;5.76;91.41
7802;BME280;3945;48.952;9.506;2022-10-04T03:30:56;98621.50;;;5.74;91.47
7802;BME280;3945;48.952;9.506;2022-10-04T03:33:23;98618.66;;;5.75;91.61
7802;BME280;3945;48.952;9.506;2022-10-04T03:35:51;98613.56;;;5.74;91.99
7802;BME280;3945;48.952;9.506;2022-10-04T03:38:19;98612.94;;;5.72;91.75
7802;BME280;3945;48.952;9.506;2022-10-04T03:40:48;98610.28;;;5.72;91.84
7802;BME280;3945;48.952;9.506;2022-10-04T03:43:18;98617.16;;;5.66;91.07
7802;BME280;3945;48.952;9.506;2022-10-04T03:45:45;98612.22;;;5.57;91.25
7802;BME280;3945;48.952;9.506;2022-10-04T03:48:12;98617.69;;;5.55;91.35
7802;BME280;3945;48.952;9.506;2022-10-04T03:50:41;98623.16;;;5.54;91.26
7802;BME280;3945;48.952;9.506;2022-10-04T03:53:11;98623.16;;;5.54;91.64
7802;BME280;3945;48.952;9.506;2022-10-04T03:55:41;98633.72;;;5.54;91.19
7802;BME280;3945;48.952;9.506;2022-10-04T04:00:37;98636.94;;;5.49;91.47
7802;BME280;3945;48.952;9.506;2022-10-04T04:03:05;98636.09;;;5.48;91.51
7802;BME280;3945;48.952;9.506;2022-10-04T04:05:34;98625.53;;;5.48;91.11
7802;BME280;3945;48.952;9.506;2022-10-04T04:08:04;98621.50;;;5.46;91.43
7802;BME280;3945;48.952;9.506;2022-10-04T04:10:32;98616.38;;;5.44;91.23
7802;BME280;3945;48.952;9.506;2022-10-04T04:13:00;98612.13;;;5.43;91.26
7802;BME280;3945;48.952;9.506;2022-10-04T04:15:28;98615.56;;;5.44;91.35
7802;BME280;3945;48.952;9.506;2022-10-04T04:17:57;98609.94;;;5.47;91.59
7802;BME280;3945;48.952;9.506;2022-10-04T04:20:26;98618.63;;;5.47;91.89
7802;BME280;3945;48.952;9.506;2022-10-04T04:22:59;98620.09;;;5.50;91.80
7802;BME280;3945;48.952;9.506;2022-10-04T04:25:27;98619.25;;;5.49;91.87
7802;BME280;3945;48.952;9.506;2022-10-04T04:27:59;98621.09;;;5.49;91.87
7802;BME280;3945;48.952;9.506;2022-10-04T04:30:26;98617.22;;;5.45;91.95
7802;BME280;3945;48.952;9.506;2022-10-04T04:32:54;98608.28;;;5.46;91.98
7802;BME280;3945;48.952;9.506;2022-10-04T04:35:28;98607.28;;;5.47;92.12
7802;BME280;3945;48.952;9.506;2022-10-04T04:38:06;98615.22;;;5.47;91.68
7802;BME280;3945;48.952;9.506;2022-10-04T04:40:38;98612.56;;;5.47;92.23
7802;BME280;3945;48.952;9.506;2022-10-04T04:43:04;98609.28;;;5.45;91.67
7802;BME280;3945;48.952;9.506;2022-10-04T04:45:31;98616.75;;;5.41;91.67
7802;BME280;3945;48.952;9.506;2022-10-04T04:48:00;98625.06;;;5.38;91.80
7802;BME280;3945;48.952;9.506;2022-10-04T04:50:29;98622.63;;;5.37;92.02
7802;BME280;3945;48.952;9.506;2022-10-04T04:52:57;98617.34;;;5.37;91.29
7802;BME280;3945;48.952;9.506;2022-10-04T04:55:25;98613.69;;;5.38;91.56
7802;BME280;3945;48.952;9.506;2022-10-04T04:57:53;98611.25;;;5.36;91.76
7802;BME280;3945;48.952;9.506;2022-10-04T05:00:21;98620.97;;;5.36;91.85
7802;BME280;3945;48.952;9.506;2022-10-04T05:02:50;98629.28;;;5.33;91.90
7802;BME280;3945;48.952;9.506;2022-10-04T05:05:20;98637.59;;;5.30;91.85
7802;BME280;3945;48.952;9.506;2022-10-04T05:07:48;98629.84;;;5.28;92.12
7802;BME280;3945;48.952;9.506;2022-10-04T05:10:19;98628.84;;;5.29;91.87
7802;BME280;3945;48.952;9.506;2022-10-04T05:12:45;98638.75;;;5.27;91.76
7802;BME280;3945;48.952;9.506;2022-10-04T05:15:12;98642.63;;;5.25;92.19
7802;BME280;3945;48.952;9.506;2022-10-04T05:17:38;98649.53;;;5.26;91.88
7802;BME280;3945;48.952;9.506;2022-10-04T05:20:05;98646.91;;;5.26;92.06
7802;BME280;3945;48.952;9.506;2022-10-04T05:22:32;98633.06;;;5.24;91.90
7802;BME280;3945;48.952;9.506;2022-10-04T05:25:02;98638.34;;;5.24;91.97
7802;BME280;3945;48.952;9.506;2022-10-04T05:27:33;98642.97;;;5.22;92.34
7802;BME280;3945;48.952;9.506;2022-10-04T05:30:01;98640.34;;;5.22;92.05
7802;BME280;3945;48.952;9.506;2022-10-04T05:32:32;98632.66;;;5.27;92.12
7802;BME280;3945;48.952;9.506;2022-10-04T05:35:09;98639.41;;;5.29;92.28
7802;BME280;3945;48.952;9.506;2022-10-04T05:37:49;98645.31;;;5.31;92.81
7802;BME280;3945;48.952;9.506;2022-10-04T05:40:25;98650.41;;;5.33;93.09
7802;BME280;3945;48.952;9.506;2022-10-04T05:42:52;98648.38;;;5.35;93.58
7802;BME280;3945;48.952;9.506;2022-10-04T05:45:22;98649.81;;;5.37;93.57
7802;BME280;3945;48.952;9.506;2022-10-04T05:47:50;98641.91;;;5.37;93.49
7802;BME280;3945;48.952;9.506;2022-10-04T05:50:18;98644.16;;;5.40;94.26
7802;BME280;3945;48.952;9.506;2022-10-04T05:52:46;98640.31;;;5.43;93.83
7802;BME280;3945;48.952;9.506;2022-10-04T05:55:15;98632.41;;;5.43;94.03
7802;BME280;3945;48.952;9.506;2022-10-04T05:57:46;98635.50;;;5.46;93.99
7802;BME280;3945;48.952;9.506;2022-10-04T06:00:15;98630.47;;;5.52;94.01
7802;BME280;3945;48.952;9.506;2022-10-04T06:02:56;98629.88;;;5.56;94.04
7802;BME280;3945;48.952;9.506;2022-10-04T06:05:31;98636.59;;;5.59;94.97
7802;BME280;3945;48.952;9.506;2022-10-04T06:08:03;98638.25;;;5.60;94.41
7802;BME280;3945;48.952;9.506;2022-10-04T06:10:41;98628.72;;;5.65;94.91
7802;BME280;3945;48.952;9.506;2022-10-04T06:13:15;98627.31;;;5.69;94.74
7802;BME280;3945;48.952;9.506;2022-10-04T06:15:51;98630.41;;;5.73;94.28
7802;BME280;3945;48.952;9.506;2022-10-04T06:21:13;98626.59;;;5.75;94.66
7802;BME280;3945;48.952;9.506;2022-10-04T06:23:43;98628.81;;;5.78;94.10
7802;BME280;3945;48.952;9.506;2022-10-04T06:26:10;98622.16;;;5.82;94.32
7802;BME280;3945;48.952;9.506;2022-10-04T06:28:41;98630.50;;;5.86;95.24
7802;BME280;3945;48.952;9.506;2022-10-04T06:31:18;98637.69;;;5.92;95.07
7802;BME280;3945;48.952;9.506;2022-10-04T06:33:54;98635.25;;;5.91;95.03
7802;BME280;3945;48.952;9.506;2022-10-04T06:36:37;98638.75;;;5.98;94.43
7802;BME280;3945;48.952;9.506;2022-10-04T06:39:11;98651.38;;;6.02;95.16
7802;BME280;3945;48.952;9.506;2022-10-04T06:41:43;98651.59;;;6.07;94.81
7802;BME280;3945;48.952;9.506;2022-10-04T06:47:05;98647.19;;;6.21;95.61
7802;BME280;3945;48.952;9.506;2022-10-04T06:49:38;98660.03;;;6.24;95.96
7802;BME280;3945;48.952;9.506;2022-10-04T06:52:25;98659.44;;;6.28;96.40
7802;BME280;3945;48.952;9.506;2022-10-04T06:55:00;98660.72;;;6.39;95.99
7802;BME280;3945;48.952;9.506;2022-10-04T06:57:40;98661.19;;;6.49;97.65
7802;BME280;3945;48.952;9.506;2022-10-04T07:00:08;98665.09;;;6.60;97.40
7802;BME280;3945;48.952;9.506;2022-10-04T07:02:39;98665.75;;;6.69;98.37
7802;BME280;3945;48.952;9.506;2022-10-04T07:05:12;98664.53;;;6.78;97.75
7802;BME280;3945;48.952;9.506;2022-10-04T07:07:41;98661.72;;;6.86;98.20
7802;BME280;3945;48.952;9.506;2022-10-04T07:10:19;98666.22;;;6.92;98.79
7802;BME280;3945;48.952;9.506;2022-10-04T07:12:49;98663.63;;;7.05;98.88
7802;BME280;3945;48.952;9.506;2022-10-04T07:15:20;98672.22;;;7.20;99.39
7802;BME280;3945;48.952;9.506;2022-10-04T07:17:50;98667.13;;;7.25;99.20
7802;BME280;3945;48.952;9.506;2022-10-04T07:20:19;98665.50;;;7.37;100.00
7802;BME280;3945;48.952;9.506;2022-10-04T07:22:49;98663.69;;;7.51;98.40
7802;BME280;3945;48.952;9.506;2022-10-04T07:25:19;98663.69;;;7.58;98.00
7802;BME280;3945;48.952;9.506;2022-10-04T07:27:48;98666.34;;;7.64;97.67
7802;BME280;3945;48.952;9.506;2022-10-04T07:30:37;98679.38;;;7.72;98.69
7802;BME280;3945;48.952;9.506;2022-10-04T07:33:05;98679.19;;;7.80;99.12
7802;BME280;3945;48.952;9.506;2022-10-04T07:35:34;98672.06;;;7.88;98.49
7802;BME280;3945;48.952;9.506;2022-10-04T07:38:06;98679.78;;;7.96;99.23
7802;BME280;3945;48.952;9.506;2022-10-04T07:40:35;98682.63;;;8.07;98.57
7802;BME280;3945;48.952;9.506;2022-10-04T07:43:03;98682.84;;;8.12;97.86
7802;BME280;3945;48.952;9.506;2022-10-04T07:45:32;98679.38;;;8.18;97.93
7802;BME280;3945;48.952;9.506;2022-10-04T07:48:03;98678.13;;;8.28;99.00
7802;BME280;3945;48.952;9.506;2022-10-04T07:50:33;98672.84;;;8.34;98.73
7802;BME280;3945;48.952;9.506;2022-10-04T07:53:02;98662.00;;;8.42;99.45
7802;BME280;3945;48.952;9.506;2022-10-04T07:55:36;98662.38;;;8.52;99.69
7802;BME280;3945;48.952;9.506;2022-10-04T07:58:13;98665.59;;;8.61;99.17
7802;BME280;3945;48.952;9.506;2022-10-04T08:00:46;98666.56;;;8.73;99.60
7802;BME280;3945;48.952;9.506;2022-10-04T08:03:22;98663.06;;;8.86;100.00
7802;BME280;3945;48.952;9.506;2022-10-04T08:05:51;98665.66;;;8.99;100.00
7802;BME280;3945;48.952;9.506;2022-10-04T08:08:24;98663.34;;;9.09;100.00
7802;BME280;3945;48.952;9.506;2022-10-04T08:11:08;98653.25;;;9.24;99.87
7802;BME280;3945;48.952;9.506;2022-10-04T08:13:41;98655.22;;;9.35;99.71
7802;BME280;3945;48.952;9.506;2022-10-04T08:16:14;98650.63;;;9.49;99.95
7802;BME280;3945;48.952;9.506;2022-10-04T08:18:46;98661.16;;;9.62;99.61
7802;BME280;3945;48.952;9.506;2022-10-04T08:21:20;98662.88;;;9.75;99.42
7802;BME280;3945;48.952;9.506;2022-10-04T08:23:56;98662.19;;;9.86;98.44
7802;BME280;3945;48.952;9.506;2022-10-04T08:29:32;98661.56;;;10.09;97.55
7802;BME280;3945;48.952;9.506;2022-10-04T08:32:19;98666.56;;;10.24;97.63
7802;BME280;3945;48.952;9.506;2022-10-04T08:34:58;98651.88;;;10.39;97.77
7802;BME280;3945;48.952;9.506;2022-10-04T08:37:30;98648.41;;;10.57;98.10
7802;BME280;3945;48.952;9.506;2022-10-04T08:40:03;98650.81;;;10.77;97.79
7802;BME280;3945;48.952;9.506;2022-10-04T08:42:57;98652.66;;;10.94;97.59
7802;BME280;3945;48.952;9.506;2022-10-04T08:51:23;98658.31;;;11.58;96.60
7802;BME280;3945;48.952;9.506;2022-10-04T08:57:11;98666.63;;;12.15;93.86
7802;BME280;3945;48.952;9.506;2022-10-04T08:59:53;98663.09;;;12.49;92.79
7802;BME280;3945;48.952;9.506;2022-10-04T09:02:40;98659.53;;;12.83;91.75
7802;BME280;3945;48.952;9.506;2022-10-04T09:08:01;98652.84;;;13.54;88.30
7802;BME280;3945;48.952;9.506;2022-10-04T09:16:12;98647.25;;;14.39;83.61
7802;BME280;3945;48.952;9.506;2022-10-04T09:18:50;98650.25;;;14.65;83.02
7802;BME280;3945;48.952;9.506;2022-10-04T09:21:25;98646.00;;;14.91;82.17
7802;BME280;3945;48.952;9.506;2022-10-04T09:24:05;98642.78;;;15.15;79.67
7802;BME280;3945;48.952;9.506;2022-10-04T09:26:40;98646.78;;;15.40;76.28
7802;BME280;3945;48.952;9.506;2022-10-04T09:29:12;98638.72;;;15.61;77.32
7802;BME280;3945;48.952;9.506;2022-10-04T09:31:46;98632.69;;;15.81;76.79
7802;BME280;3945;48.952;9.506;2022-10-04T09:34:29;98633.94;;;16.06;76.01
7802;BME280;3945;48.952;9.506;2022-10-04T09:37:02;98631.94;;;16.28;73.44
7802;BME280;3945;48.952;9.506;2022-10-04T09:42:29;98616.50;;;16.55;71.49
7802;BME280;3945;48.952;9.506;2022-10-04T09:50:46;98618.78;;;16.84;66.76
7802;BME280;3945;48.952;9.506;2022-10-04T09:53:33;98615.03;;;16.90;67.75
7802;BME280;3945;48.952;9.506;2022-10-04T09:56:12;98629.84;;;16.92;66.34
7802;BME280;3945;48.952;9.506;2022-10-04T09:58:54;98635.22;;;17.02;67.98
7802;BME280;3945;48.952;9.506;2022-10-04T10:01:25;98633.38;;;17.13;65.49
7802;BME280;3945;48.952;9.506;2022-10-04T10:06:56;98625.63;;;17.47;64.79
7802;BME280;3945;48.952;9.506;2022-10-04T10:09:28;98629.44;;;17.61;63.60
7802;BME280;3945;48.952;9.506;2022-10-04T10:12:16;98622.97;;;17.72;62.69
7802;BME280;3945;48.952;9.506;2022-10-04T10:15:06;98638.03;;;17.73;62.30
7802;BME280;3945;48.952;9.506;2022-10-04T10:17:39;98635.38;;;17.78;63.74
7802;BME280;3945;48.952;9.506;2022-10-04T10:20:16;98636.69;;;17.81;63.94
7802;BME280;3945;48.952;9.506;2022-10-04T10:25:53;98630.50;;;18.06;63.20
7802;BME280;3945;48.952;9.506;2022-10-04T10:28:37;98631.28;;;18.11;62.05
7802;BME280;3945;48.952;9.506;2022-10-04T10:36:41;98624.28;;;18.15;63.49
7802;BME280;3945;48.952;9.506;2022-10-04T10:42:18;98622.91;;;18.28;62.77
7802;BME280;3945;48.952;9.506;2022-10-04T10:45:01;98629.88;;;18.39;61.82
7802;BME280;3945;48.952;9.506;2022-10-04T10:47:35;98625.56;;;18.43;60.65
7802;BME280;3945;48.952;9.506;2022-10-04T10:50:06;98630.09;;;18.53;62.51
7802;BME280;3945;48.952;9.506;2022-10-04T10:55:41;98623.94;;;18.57;61.22
7802;BME280;3945;48.952;9.506;2022-10-04T10:58:23;98619.88;;;18.65;61.07
7802;BME280;3945;48.952;9.506;2022-10-04T11:00:58;98607.41;;;18.79;60.49
7802;BME280;3945;48.952;9.506;2022-10-04T11:03:35;98610.03;;;18.89;60.16
7802;BME280;3945;48.952;9.506;2022-10-04T11:06:14;98609.72;;;19.01;60.68
7802;BME280;3945;48.952;9.506;2022-10-04T11:08:49;98609.09;;;19.14;57.46
7802;BME280;3945;48.952;9.506;2022-10-04T11:11:34;98602.31;;;19.17;58.79
7802;BME280;3945;48.952;9.506;2022-10-04T11:14:26;98592.31;;;19.22;59.43
7802;BME280;3945;48.952;9.506;2022-10-04T11:17:14;98588.75;;;19.27;58.80
7802;BME280;3945;48.952;9.506;2022-10-04T11:25:27;98586.47;;;19.44;59.10
7802;BME280;3945;48.952;9.506;2022-10-04T11:28:02;98592.69;;;19.49;56.85
7802;BME280;3945;48.952;9.506;2022-10-04T11:30:35;98589.38;;;19.58;55.86
7802;BME280;3945;48.952;9.506;2022-10-04T11:38:49;98576.25;;;19.75;59.28
7802;BME280;3945;48.952;9.506;2022-10-04T11:41:17;98581.56;;;19.85;57.22
7802;BME280;3945;48.952;9.506;2022-10-04T11:44:10;98582.22;;;20.01;58.82
7802;BME280;3945;48.952;9.506;2022-10-04T11:46:45;98570.91;;;20.22;59.15
7802;BME280;3945;48.952;9.506;2022-10-04T11:49:31;98557.19;;;20.43;58.82
7802;BME280;3945;48.952;9.506;2022-10-04T11:52:13;98554.56;;;20.56;56.59
7802;BME280;3945;48.952;9.506;2022-10-04T11:54:52;98551.22;;;20.64;55.97
7802;BME280;3945;48.952;9.506;2022-10-04T11:57:26;98554.53;;;20.80;53.71
7802;BME280;3945;48.952;9.506;2022-10-04T11:59:58;98547.34;;;20.89;57.46
7802;BME280;3945;48.952;9.506;2022-10-04T12:05:24;98542.97;;;21.12;55.58
7802;BME280;3945;48.952;9.506;2022-10-04T12:07:56;98537.63;;;21.07;53.37
7802;BME280;3945;48.952;9.506;2022-10-04T12:10:26;98531.50;;;21.01;54.51
7802;BME280;3945;48.952;9.506;2022-10-04T12:15:40;98538.47;;;20.89;53.70
7802;BME280;3945;48.952;9.506;2022-10-04T12:18:22;98537.94;;;20.87;53.81
7802;BME280;3945;48.952;9.506;2022-10-04T12:23:47;98536.91;;;20.83;56.52
7802;BME280;3945;48.952;9.506;2022-10-04T12:26:28;98528.94;;;20.91;55.50
7802;BME280;3945;48.952;9.506;2022-10-04T12:29:03;98529.28;;;21.03;52.27
7802;BME280;3945;48.952;9.506;2022-10-04T12:31:40;98525.44;;;21.10;54.61
7802;BME280;3945;48.952;9.506;2022-10-04T12:34:11;98519.38;;;21.18;54.84
7802;BME280;3945;48.952;9.506;2022-10-04T12:36:48;98516.50;;;21.28;53.89
7802;BME280;3945;48.952;9.506;2022-10-04T12:39:24;98512.41;;;21.30;52.49
7802;BME280;3945;48.952;9.506;2022-10-04T12:41:57;98513.41;;;21.34;52.73
7802;BME280;3945;48.952;9.506;2022-10-04T12:44:32;98514.63;;;21.42;49.58
7802;BME280;3945;48.952;9.506;2022-10-04T12:47:27;98510.72;;;21.48;53.81
7802;BME280;3945;48.952;9.506;2022-10-04T12:49:58;98501.75;;;21.53;54.44
7802;BME280;3945;48.952;9.506;2022-10-04T12:52:29;98507.25;;;21.61;52.33
7802;BME280;3945;48.952;9.506;2022-10-04T12:55:00;98503.06;;;21.69;52.94
7802;BME280;3945;48.952;9.506;2022-10-04T12:57:34;98502.38;;;21.77;51.60
7802;BME280;3945;48.952;9.506;2022-10-04T13:00:11;98502.88;;;21.93;53.08
7802;BME280;3945;48.952;9.506;2022-10-04T13:03:00;98497.00;;;22.04;51.99
7802;BME280;3945;48.952;9.506;2022-10-04T13:05:31;98505.72;;;22.15;49.74
7802;BME280;3945;48.952;9.506;2022-10-04T13:08:02;98507.53;;;22.19;48.17
7802;BME280;3945;48.952;9.506;2022-10-04T13:10:40;98515.78;;;22.28;49.22
7802;BME280;3945;48.952;9.506;2022-10-04T13:13:22;98509.75;;;22.31;48.67
7802;BME280;3945;48.952;9.506;2022-10-04T13:15:51;98507.84;;;22.32;47.58
7802;BME280;3945;48.952;9.506;2022-10-04T13:18:24;98508.72;;;22.27;46.38
7802;BME280;3945;48.952;9.506;2022-10-04T13:20:52;98508.56;;;22.24;47.62
7802;BME280;3945;48.952;9.506;2022-10-04T13:26:22;98500.94;;;22.26;49.49
7802;BME280;3945;48.952;9.506;2022-10-04T13:28:54;98508.53;;;22.37;47.94
7802;BME280;3945;48.952;9.506;2022-10-04T13:31:28;98503.28;;;22.41;46.43
7802;BME280;3945;48.952;9.506;2022-10-04T13:34:00;98516.25;;;22.44;47.63
7802;BME280;3945;48.952;9.506;2022-10-04T13:36:30;98515.34;;;22.48;47.51
7802;BME280;3945;48.952;9.506;2022-10-04T13:39:14;98514.34;;;22.44;48.37
7802;BME280;3945;48.952;9.506;2022-10-04T13:44:33;98511.81;;;22.48;46.22
7802;BME280;3945;48.952;9.506;2022-10-04T13:47:05;98516.66;;;22.51;47.99
7802;BME280;3945;48.952;9.506;2022-10-04T13:49:36;98518.25;;;22.52;46.66
7802;BME280;3945;48.952;9.506;2022-10-04T13:52:11;98516.16;;;22.49;46.26
7802;BME280;3945;48.952;9.506;2022-10-04T13:54:59;98515.47;;;22.43;45.95
7802;BME280;3945;48.952;9.506;2022-10-04T13:57:50;98515.75;;;22.42;47.97
7802;BME280;3945;48.952;9.506;2022-10-04T14:00:27;98509.84;;;22.40;47.13
7802;BME280;3945;48.952;9.506;2022-10-04T14:03:01;98513.03;;;22.42;46.96
7802;BME280;3945;48.952;9.506;2022-10-04T14:08:17;98507.13;;;22.26;45.65
7802;BME280;3945;48.952;9.506;2022-10-04T14:10:50;98507.84;;;22.18;45.94
7802;BME280;3945;48.952;9.506;2022-10-04T14:13:25;98507.84;;;22.04;46.05
7802;BME280;3945;48.952;9.506;2022-10-04T14:21:53;98497.38;;;21.98;47.17
7802;BME280;3945;48.952;9.506;2022-10-04T14:27:24;98483.25;;;22.01;47.36
7802;BME280;3945;48.952;9.506;2022-10-04T14:30:01;98486.25;;;21.99;48.43
7802;BME280;3945;48.952;9.506;2022-10-04T14:32:50;98480.25;;;22.02;47.90
7802;BME280;3945;48.952;9.506;2022-10-04T14:35:25;98474.59;;;21.99;49.16
7802;BME280;3945;48.952;9.506;2022-10-04T14:37:58;98472.69;;;21.99;50.18
7802;BME280;3945;48.952;9.506;2022-10-04T14:40:42;98478.19;;;21.94;48.06
7802;BME280;3945;48.952;9.506;2022-10-04T14:43:12;98479.41;;;21.88;47.91
7802;BME280;3945;48.952;9.506;2022-10-04T14:45:51;98477.28;;;21.85;48.19
7802;BME280;3945;48.952;9.506;2022-10-04T14:48:27;98475.19;;;21.82;50.47
7802;BME280;3945;48.952;9.506;2022-10-04T14:51:13;98475.47;;;21.67;48.18
7802;BME280;3945;48.952;9.506;2022-10-04T14:53:48;98468.84;;;21.59;48.29
7802;BME280;3945;48.952;9.506;2022-10-04T14:56:28;98473.22;;;21.55;49.47
7802;BME280;3945;48.952;9.506;2022-10-04T14:59:01;98474.03;;;21.56;50.10
7802;BME280;3945;48.952;9.506;2022-10-04T15:01:30;98470.84;;;21.54;50.67
7802;BME280;3945;48.952;9.506;2022-10-04T15:04:08;98469.22;;;21.53;51.41
7802;BME280;3945;48.952;9.506;2022-10-04T15:06:40;98472.53;;;21.50;51.75
7802;BME280;3945;48.952;9.506;2022-10-04T15:12:19;98470.22;;;21.43;49.18
7802;BME280;3945;48.952;9.506;2022-10-04T15:15:01;98471.50;;;21.13;48.59
7802;BME280;3945;48.952;9.506;2022-10-04T15:17:29;98464.34;;;21.03;49.80
7802;BME280;3945;48.952;9.506;2022-10-04T15:20:00;98461.50;;;20.95;49.68
7802;BME280;3945;48.952;9.506;2022-10-04T15:22:30;98462.91;;;20.92;50.60
7802;BME280;3945;48.952;9.506;2022-10-04T15:25:34;98457.06;;;20.85;51.63
7802;BME280;3945;48.952;9.506;2022-10-04T15:27:55;98464.97;;;20.82;51.67
7802;BME280;3945;48.952;9.506;2022-10-04T15:30:23;98460.13;;;20.79;52.82
7802;BME280;3945;48.952;9.506;2022-10-04T15:33:00;98457.19;;;20.75;53.11
7802;BME280;3945;48.952;9.506;2022-10-04T15:35:34;98458.59;;;20.73;53.56
7802;BME280;3945;48.952;9.506;2022-10-04T15:38:04;98457.81;;;20.72;51.50
7802;BME280;3945;48.952;9.506;2022-10-04T15:40:40;98446.25;;;20.67;51.26
7802;BME280;3945;48.952;9.506;2022-10-04T15:43:21;98447.94;;;20.62;51.73